createdAt,value
2023-02-23T00:02:15.250Z,10.97
2023-02-23T00:04:42.150Z,10.83
2023-02-23T00:07:09.320Z,10.63
2023-02-23T00:12:20.818Z,10.87
2023-02-23T00:14:47.565Z,10.70
2023-02-23T00:17:14.954Z,10.97
2023-02-23T00:19:43.773Z,10.67
2023-02-23T00:24:57.554Z,11.00
2023-02-23T00:27:24.180Z,10.77
2023-02-23T00:29:51.040Z,11.77
2023-02-23T00:32:21.411Z,10.83
2023-02-23T00:37:35.646Z,11.53
2023-02-23T00:40:02.257Z,10.70
2023-02-23T00:42:32.285Z,11.03
2023-02-23T00:47:52.369Z,11.73
2023-02-23T00:53:03.195Z,11.90
2023-02-23T00:58:14.092Z,11.03
2023-02-23T01:00:42.329Z,12.57
2023-02-23T01:03:08.986Z,11.30
2023-02-23T01:05:36.106Z,12.00
2023-02-23T01:08:02.745Z,11.57
2023-02-23T01:10:29.423Z,11.57
2023-02-23T01:12:56.056Z,12.20
2023-02-23T01:15:23.257Z,12.30
2023-02-23T01:17:49.938Z,12.37
2023-02-23T01:20:20.008Z,11.53
2023-02-23T01:22:47.730Z,12.27
2023-02-23T01:25:14.768Z,11.43
2023-02-23T01:27:41.455Z,12.10
2023-02-23T01:30:09.652Z,11.70
2023-02-23T01:32:37.615Z,11.50
2023-02-23T01:35:10.703Z,11.40
2023-02-23T01:37:40.569Z,10.97
2023-02-23T01:40:15.558Z,11.40
2023-02-23T01:42:45.731Z,11.23
2023-02-23T02:17:30.094Z,8.67
2023-02-23T02:20:15.054Z,9.30
2023-02-23T02:23:08.429Z,8.87
2023-02-23T02:25:37.036Z,7.97
2023-02-23T02:31:11.342Z,7.83
2023-02-23T02:33:58.409Z,7.67
2023-02-23T02:36:41.296Z,7.10
2023-02-23T02:39:34.827Z,7.43
2023-02-23T02:42:02.634Z,6.23
2023-02-23T02:44:49.893Z,6.83
2023-02-23T02:47:22.823Z,6.60
2023-02-23T02:52:44.935Z,7.03
2023-02-23T02:55:13.608Z,8.87
2023-02-23T02:57:40.884Z,8.47
2023-02-23T03:03:47.503Z,6.87
2023-02-23T03:06:33.660Z,6.67
2023-02-23T03:09:27.454Z,6.80
2023-02-23T03:15:26.269Z,6.90
2023-02-23T03:21:34.908Z,7.30
2023-02-23T03:27:49.075Z,8.27
2023-02-23T03:33:54.017Z,6.60
2023-02-23T03:36:42.201Z,4.90
2023-02-23T03:39:30.786Z,6.03
2023-02-23T03:42:15.928Z,6.03
2023-02-23T03:45:02.110Z,5.80
2023-02-23T03:47:50.330Z,5.07
2023-02-23T03:50:54.083Z,5.17
2023-02-23T03:53:42.021Z,5.77
2023-02-23T03:56:27.325Z,6.07
2023-02-23T04:02:16.970Z,6.20
2023-02-23T04:05:02.237Z,5.40
2023-02-23T04:07:47.553Z,5.90
2023-02-23T04:10:32.767Z,5.87
2023-02-23T04:13:16.721Z,4.80
2023-02-23T04:18:29.141Z,5.33
2023-02-23T04:20:55.850Z,5.90
2023-02-23T04:23:25.380Z,4.47
2023-02-23T04:25:52.930Z,6.03
2023-02-23T04:31:04.215Z,4.60
2023-02-23T04:33:30.970Z,5.27
2023-02-23T04:35:57.755Z,5.10
2023-02-23T04:38:24.314Z,4.60
2023-02-23T04:40:51.045Z,5.00
2023-02-23T04:43:17.612Z,5.83
2023-02-23T04:45:44.500Z,5.07
2023-02-23T04:50:55.572Z,4.63
2023-02-23T04:56:06.149Z,5.80
2023-02-23T04:58:33.078Z,5.20
2023-02-23T05:01:06.678Z,5.57
2023-02-23T05:03:33.391Z,5.50
2023-02-23T05:06:00.031Z,5.33
2023-02-23T05:08:26.643Z,5.20
2023-02-23T05:10:53.241Z,5.73
2023-02-23T05:13:20.690Z,6.20
2023-02-23T05:15:47.424Z,5.97
2023-02-23T05:18:14.043Z,6.03
2023-02-23T05:20:43.012Z,5.87
2023-02-23T05:23:09.565Z,6.77
2023-02-23T05:25:38.869Z,5.83
2023-02-23T05:28:05.632Z,6.27
2023-02-23T05:30:33.234Z,5.23
2023-02-23T05:32:59.956Z,6.00
2023-02-23T05:35:26.591Z,5.97
2023-02-23T05:37:53.166Z,6.33
2023-02-23T05:43:04.190Z,5.90
2023-02-23T05:45:30.818Z,6.13
2023-02-23T05:47:57.439Z,5.80
2023-02-23T05:50:23.991Z,6.30
2023-02-23T05:55:37.613Z,5.73
2023-02-23T05:58:05.622Z,5.97
2023-02-23T06:00:32.426Z,5.53
2023-02-23T06:02:58.962Z,6.03
2023-02-23T06:08:09.989Z,6.83
2023-02-23T06:10:36.617Z,7.07
2023-02-23T06:13:03.960Z,7.30
2023-02-23T06:15:30.564Z,12.30
2023-02-23T06:17:57.655Z,20.00
2023-02-23T06:20:24.205Z,13.77
2023-02-23T06:22:51.004Z,14.50
2023-02-23T06:25:17.763Z,11.23
2023-02-23T06:27:46.277Z,22.07
2023-02-23T06:30:13.227Z,34.43
2023-02-23T06:32:40.033Z,18.67
2023-02-23T06:35:10.210Z,9.00
2023-02-23T06:37:36.882Z,6.43
2023-02-23T06:40:04.091Z,7.27
2023-02-23T06:42:30.685Z,7.97
2023-02-23T06:44:57.218Z,8.10
2023-02-23T06:47:23.860Z,6.67
2023-02-23T06:49:50.420Z,7.73
2023-02-23T06:52:17.202Z,7.87
2023-02-23T06:54:44.221Z,8.20
2023-02-23T06:57:11.119Z,7.27
2023-02-23T06:59:38.045Z,7.93
2023-02-23T07:02:07.679Z,8.10
2023-02-23T07:04:34.322Z,6.93
2023-02-23T07:07:01.648Z,8.13
2023-02-23T07:09:30.583Z,7.50
2023-02-23T07:11:59.600Z,6.47
2023-02-23T07:14:27.349Z,8.13
2023-02-23T07:19:39.107Z,7.47
2023-02-23T07:22:06.147Z,5.70
2023-02-23T07:24:32.974Z,6.67
2023-02-23T07:26:59.623Z,7.60
2023-02-23T07:29:28.292Z,7.10
2023-02-23T07:31:55.293Z,8.33
2023-02-23T07:34:22.068Z,8.27
2023-02-23T07:36:48.816Z,7.40
2023-02-23T07:39:15.606Z,8.87
2023-02-23T07:41:42.182Z,8.70
2023-02-23T07:44:17.654Z,9.10
2023-02-23T07:46:46.429Z,8.37
2023-02-23T07:49:13.916Z,8.20
2023-02-23T07:54:26.261Z,5.73
2023-02-23T07:56:52.971Z,6.97
2023-02-23T07:59:19.629Z,8.30
2023-02-23T08:01:46.222Z,7.17
2023-02-23T08:04:12.933Z,7.90
2023-02-23T08:06:39.573Z,7.40
2023-02-23T08:09:06.324Z,6.70
2023-02-23T08:11:33.071Z,7.33
2023-02-23T08:14:02.528Z,6.53
2023-02-23T08:16:29.561Z,7.23
2023-02-23T08:18:56.695Z,6.90
2023-02-23T08:21:23.257Z,7.50
2023-02-23T08:23:49.953Z,7.20
2023-02-23T08:26:16.648Z,6.97
2023-02-23T08:28:45.829Z,6.30
2023-02-23T08:31:13.118Z,6.50
2023-02-23T08:33:39.968Z,7.73
2023-02-23T08:36:07.255Z,7.50
2023-02-23T08:38:36.658Z,7.57
2023-02-23T08:41:04.052Z,7.10
2023-02-23T08:43:30.714Z,7.50
2023-02-23T08:45:57.415Z,6.67
2023-02-23T08:48:24.696Z,7.50
2023-02-23T08:50:51.361Z,7.90
2023-02-23T08:53:17.971Z,8.20
2023-02-23T08:58:30.526Z,7.67
2023-02-23T09:00:57.500Z,7.93
2023-02-23T09:03:25.971Z,8.00
2023-02-23T09:05:52.714Z,8.13
2023-02-23T09:11:03.654Z,9.13
2023-02-23T09:13:30.302Z,9.30
2023-02-23T09:15:56.985Z,8.90
2023-02-23T09:18:24.150Z,7.50
2023-02-23T09:20:50.867Z,8.30
2023-02-23T09:23:17.515Z,9.43
2023-02-23T09:25:44.436Z,9.57
2023-02-23T09:28:15.217Z,9.63
2023-02-23T09:30:42.186Z,8.90
2023-02-23T09:33:08.870Z,7.97
2023-02-23T09:35:36.425Z,8.60
2023-02-23T09:38:06.559Z,9.33
2023-02-23T09:40:50.012Z,9.23
2023-02-23T09:43:26.111Z,8.23
2023-02-23T09:48:46.480Z,5.43
2023-02-23T09:51:18.107Z,9.23
2023-02-23T09:53:46.411Z,5.77
2023-02-23T09:56:21.959Z,7.37
2023-02-23T09:58:50.409Z,8.53
2023-02-23T10:01:21.076Z,7.57
2023-02-23T10:03:53.209Z,4.67
2023-02-23T10:06:21.161Z,8.93
2023-02-23T10:08:51.041Z,5.83
2023-02-23T10:11:26.927Z,9.00
2023-02-23T10:13:55.459Z,8.60
2023-02-23T10:16:28.232Z,9.60
2023-02-23T10:18:58.827Z,8.33
2023-02-23T10:24:28.754Z,6.93
2023-02-23T10:29:51.454Z,7.57
2023-02-23T10:35:01.896Z,8.30
2023-02-23T10:37:28.549Z,9.83
2023-02-23T10:39:55.253Z,7.93
2023-02-23T10:42:28.860Z,8.83
2023-02-23T10:44:56.230Z,9.50
2023-02-23T10:47:23.497Z,7.93
2023-02-23T10:52:41.605Z,7.93
2023-02-23T10:55:09.151Z,8.93
2023-02-23T10:57:39.941Z,9.57
2023-02-23T11:00:15.975Z,9.93
2023-02-23T11:02:46.410Z,9.33
2023-02-23T11:08:32.613Z,8.67
2023-02-23T11:10:59.357Z,9.67
2023-02-23T11:13:29.582Z,8.90
2023-02-23T11:16:13.535Z,9.30
2023-02-23T11:18:44.560Z,9.50
2023-02-23T11:21:11.888Z,9.77
2023-02-23T11:23:39.213Z,9.00
2023-02-23T11:26:35.202Z,9.60
2023-02-23T11:31:54.692Z,10.00
2023-02-23T11:34:23.026Z,10.30
2023-02-23T11:37:01.500Z,9.60
2023-02-23T11:39:28.273Z,9.03
2023-02-23T11:42:25.435Z,9.37
2023-02-23T11:44:52.241Z,9.37
2023-02-23T11:47:20.605Z,8.80
2023-02-23T11:49:47.393Z,9.03
2023-02-23T11:55:03.041Z,8.70
2023-02-23T12:00:21.570Z,9.90
2023-02-23T12:05:36.524Z,10.03
2023-02-23T12:08:05.376Z,8.83
2023-02-23T12:10:38.992Z,9.63
2023-02-23T12:13:10.411Z,9.90
2023-02-23T12:15:41.998Z,10.00
2023-02-23T12:18:11.960Z,10.37
2023-02-23T12:20:41.557Z,9.90
2023-02-23T12:23:12.899Z,10.10
2023-02-23T12:25:47.511Z,10.07
2023-02-23T12:28:19.199Z,7.97
2023-02-23T12:30:46.222Z,11.00
2023-02-23T12:36:17.000Z,11.37
2023-02-23T12:39:07.059Z,10.33
2023-02-23T12:41:36.466Z,8.63
2023-02-23T12:44:18.425Z,9.83
2023-02-23T12:46:51.263Z,10.30
2023-02-23T12:49:20.750Z,8.53
2023-02-23T12:51:51.974Z,10.50
2023-02-23T12:54:19.346Z,10.23
2023-02-23T12:59:52.853Z,10.10
2023-02-23T13:02:38.418Z,10.53
2023-02-23T13:05:22.683Z,11.80
2023-02-23T13:07:57.127Z,10.53
2023-02-23T13:10:48.796Z,10.93
2023-02-23T13:13:24.564Z,10.90
2023-02-23T13:15:51.702Z,11.10
2023-02-23T13:18:24.357Z,11.13
2023-02-23T13:20:52.141Z,11.60
2023-02-23T13:23:21.574Z,10.40
2023-02-23T13:25:55.638Z,10.43
2023-02-23T13:28:32.617Z,12.00
2023-02-23T13:33:44.546Z,11.43
2023-02-23T13:36:13.003Z,12.00
2023-02-23T13:38:48.475Z,10.87
2023-02-23T13:41:18.448Z,11.27
2023-02-23T13:44:11.804Z,10.13
2023-02-23T13:46:47.603Z,12.27
2023-02-23T13:49:20.614Z,12.50
2023-02-23T13:51:55.620Z,11.57
2023-02-23T13:54:24.320Z,12.87
2023-02-23T13:56:53.207Z,11.73
2023-02-23T13:59:21.480Z,11.20
2023-02-23T14:01:55.901Z,11.13
2023-02-23T14:04:22.787Z,12.00
2023-02-23T14:06:53.840Z,11.83
2023-02-23T14:09:23.987Z,13.40
2023-02-23T14:11:51.235Z,12.60
2023-02-23T14:17:19.259Z,13.30
2023-02-23T14:19:51.823Z,13.10
2023-02-23T14:22:22.092Z,13.20
2023-02-23T14:25:08.431Z,13.87
2023-02-23T14:27:41.841Z,12.53
2023-02-23T14:30:11.519Z,14.13
2023-02-23T14:32:38.976Z,12.53
2023-02-23T14:35:06.456Z,12.47
2023-02-23T14:37:36.915Z,12.87
2023-02-23T14:40:19.749Z,12.13
2023-02-23T14:45:31.520Z,13.77
2023-02-23T14:48:10.280Z,11.67
2023-02-23T14:50:37.655Z,13.57
2023-02-23T14:53:04.517Z,13.47
2023-02-23T14:58:27.081Z,12.70
2023-02-23T15:03:38.445Z,13.53
2023-02-23T15:06:05.434Z,13.17
2023-02-23T15:08:33.415Z,10.17
2023-02-23T15:13:52.543Z,11.43
2023-02-23T15:16:23.206Z,13.63
2023-02-23T15:18:51.934Z,12.67
2023-02-23T15:21:20.371Z,13.87
2023-02-23T15:23:51.016Z,13.63
2023-02-23T15:26:27.743Z,13.30
2023-02-23T15:28:54.639Z,12.80
2023-02-23T15:31:21.836Z,13.93
2023-02-23T15:33:50.895Z,13.57
2023-02-23T15:36:28.205Z,12.37
2023-02-23T15:38:55.321Z,13.57
2023-02-23T15:41:29.556Z,13.67
2023-02-23T15:44:02.107Z,13.47
2023-02-23T15:46:28.896Z,14.23
2023-02-23T15:48:55.960Z,13.73
2023-02-23T15:51:31.287Z,13.63
2023-02-23T15:53:58.232Z,13.97
2023-02-23T15:56:27.657Z,14.73
2023-02-23T15:58:58.276Z,17.17
2023-02-23T16:01:25.930Z,16.33
2023-02-23T16:04:02.486Z,17.17
2023-02-23T16:06:33.399Z,15.40
2023-02-23T16:09:22.259Z,14.17
2023-02-23T16:15:41.206Z,15.93
2023-02-23T16:18:20.524Z,17.50
2023-02-23T16:20:48.291Z,16.43
2023-02-23T16:23:25.247Z,15.10
2023-02-23T16:26:24.217Z,16.63
2023-02-23T16:28:54.056Z,16.33
2023-02-23T16:31:29.779Z,15.90
2023-02-23T16:34:01.781Z,15.37
2023-02-23T16:36:35.305Z,15.97
2023-02-23T16:39:02.897Z,15.03
2023-02-23T17:32:54.312Z,13.90
2023-02-23T17:45:20.911Z,12.53
2023-02-23T18:30:01.699Z,14.50
2023-02-23T18:39:52.702Z,15.30
2023-02-23T18:42:20.407Z,17.07
2023-02-23T18:44:47.454Z,17.17
2023-02-23T18:47:17.138Z,16.60
2023-02-23T18:49:44.328Z,16.00
2023-02-23T18:52:12.472Z,17.43
2023-02-23T18:57:26.296Z,16.33
2023-02-23T18:59:53.073Z,15.13
2023-02-23T19:02:20.537Z,18.87
2023-02-23T19:05:06.957Z,19.33
2023-02-23T19:07:36.148Z,17.03
2023-02-23T19:10:03.324Z,15.63
2023-02-23T19:12:33.651Z,19.43
2023-02-23T19:15:00.463Z,17.83
2023-02-23T19:17:29.001Z,16.53
2023-02-23T19:19:56.307Z,16.43
2023-02-23T19:22:24.834Z,16.93
2023-02-23T19:24:51.604Z,18.43
2023-02-23T19:27:18.507Z,18.77
2023-02-23T19:29:48.172Z,17.27
2023-02-23T19:32:23.886Z,15.40
2023-02-23T19:34:52.670Z,17.87
2023-02-23T19:37:19.889Z,16.83
2023-02-23T19:39:46.761Z,15.70
2023-02-23T19:42:18.287Z,18.93
2023-02-23T19:47:29.475Z,15.13
2023-02-23T19:49:57.164Z,20.60
2023-02-23T19:52:24.827Z,21.27
2023-02-23T19:54:51.629Z,21.07
2023-02-23T19:57:19.729Z,20.13
2023-02-23T19:59:46.414Z,21.67
2023-02-23T20:02:14.442Z,17.10
2023-02-23T20:07:27.382Z,20.37
2023-02-23T20:09:54.157Z,17.50
2023-02-23T20:12:20.956Z,20.27
2023-02-23T20:14:49.605Z,23.30
2023-02-23T20:17:16.540Z,23.17
2023-02-23T20:19:44.371Z,22.67
2023-02-23T20:22:12.471Z,18.23
2023-02-23T20:24:39.289Z,19.87
2023-02-23T20:27:06.158Z,21.33
2023-02-23T20:29:34.477Z,17.50
2023-02-23T20:32:02.822Z,20.33
2023-02-23T20:34:30.172Z,22.60
2023-02-23T20:36:57.028Z,16.73
2023-02-23T20:39:28.265Z,22.73
2023-02-23T20:41:55.141Z,22.53
2023-02-23T20:44:22.655Z,20.83
2023-02-23T20:49:34.141Z,23.07
2023-02-23T20:52:02.256Z,19.70
2023-02-23T20:54:29.516Z,22.90
2023-02-23T20:56:59.393Z,22.47
2023-02-23T21:02:15.638Z,22.93
2023-02-23T21:04:44.482Z,24.27
2023-02-23T21:07:13.949Z,23.73
2023-02-23T21:09:40.905Z,21.20
2023-02-23T21:12:10.348Z,24.13
2023-02-23T21:14:37.513Z,23.17
2023-02-23T21:17:04.417Z,21.37
2023-02-23T21:19:31.572Z,17.90
2023-02-23T21:21:59.536Z,22.37
2023-02-23T21:24:29.083Z,18.57
2023-02-23T21:26:56.307Z,21.37
2023-02-23T21:29:24.048Z,21.60
2023-02-23T21:31:51.137Z,23.60
2023-02-23T21:34:21.399Z,19.40
2023-02-23T21:36:51.435Z,25.37
2023-02-23T21:39:18.183Z,19.17
2023-02-23T21:41:44.881Z,16.03
2023-02-23T21:44:11.554Z,20.57
2023-02-23T21:46:38.280Z,25.37
2023-02-23T21:49:10.050Z,25.03
2023-02-23T21:51:40.589Z,21.33
2023-02-23T21:54:07.322Z,21.70
2023-02-23T21:56:34.957Z,23.93
2023-02-23T21:59:01.674Z,24.87
2023-02-23T22:01:29.216Z,25.37
2023-02-23T22:03:57.623Z,25.77
2023-02-23T22:06:25.767Z,19.50
2023-02-23T22:08:52.586Z,25.63
2023-02-23T22:11:20.785Z,20.93
2023-02-23T22:13:48.160Z,25.83
2023-02-23T22:16:17.026Z,23.10
2023-02-23T22:18:43.756Z,17.77
2023-02-23T22:21:12.318Z,20.13
2023-02-23T22:23:44.053Z,26.30
2023-02-23T22:26:10.933Z,23.93
2023-02-23T22:28:37.851Z,26.13
2023-02-23T22:31:08.329Z,25.13
2023-02-23T22:33:35.624Z,24.10
2023-02-23T22:36:02.935Z,26.30
2023-02-23T22:38:31.476Z,21.47
2023-02-23T22:40:59.654Z,25.73
2023-02-23T22:43:27.188Z,24.13
2023-02-23T22:45:55.008Z,25.03
2023-02-23T22:48:23.369Z,23.20
2023-02-23T22:50:50.441Z,19.77
2023-02-23T22:53:17.247Z,23.77
2023-02-23T22:58:32.845Z,23.60
2023-02-23T23:01:06.655Z,23.73
2023-02-23T23:03:36.989Z,24.67
2023-02-23T23:06:04.806Z,24.87
2023-02-23T23:08:35.322Z,26.40
2023-02-23T23:11:04.032Z,22.67
2023-02-23T23:13:37.076Z,23.47
2023-02-23T23:16:16.725Z,25.30
2023-02-23T23:18:54.506Z,19.97
2023-02-23T23:21:23.506Z,24.37
2023-02-23T23:23:50.827Z,23.60
2023-02-23T23:29:07.533Z,19.17
2023-02-23T23:34:21.700Z,23.33
2023-02-23T23:36:53.195Z,23.67
2023-02-23T23:39:20.854Z,23.10
2023-02-23T23:41:50.357Z,23.73
2023-02-23T23:44:17.505Z,24.60
2023-02-23T23:46:44.832Z,24.90
2023-02-23T23:49:12.448Z,24.77
2023-02-23T23:54:31.012Z,26.33
2023-02-23T23:56:58.696Z,21.87
2023-02-23T23:59:25.500Z,25.20
